createdAt,value
2019-02-24T00:01:04.235Z,68.62
2019-02-24T00:03:31.892Z,68.17
2019-02-24T00:05:59.267Z,68.84
2019-02-24T00:08:26.778Z,68.77
2019-02-24T00:10:54.346Z,68.07
2019-02-24T00:13:21.575Z,68.61
2019-02-24T00:15:48.915Z,68.25
2019-02-24T00:18:16.803Z,68.57
2019-02-24T00:20:44.279Z,68.86
2019-02-24T00:23:12.234Z,68.95
2019-02-24T00:25:39.773Z,68.27
2019-02-24T00:28:07.548Z,68.83
2019-02-24T00:30:35.446Z,69.09
2019-02-24T00:33:02.913Z,68.76
2019-02-24T00:35:30.956Z,69.01
2019-02-24T00:37:58.209Z,68.70
2019-02-24T00:40:25.370Z,69.21
2019-02-24T00:42:53.393Z,69.71
2019-02-24T00:45:21.144Z,69.11
2019-02-24T00:47:48.929Z,69.66
2019-02-24T00:50:17.119Z,69.66
2019-02-24T00:52:44.350Z,69.61
2019-02-24T00:55:12.322Z,70.18
2019-02-24T00:57:40.216Z,69.31
2019-02-24T01:00:08.943Z,69.84
2019-02-24T01:02:36.419Z,69.40
2019-02-24T01:05:04.373Z,69.68
2019-02-24T01:07:31.521Z,70.39
2019-02-24T01:09:59.021Z,70.08
2019-02-24T01:12:27.183Z,70.62
2019-02-24T01:14:54.991Z,70.50
2019-02-24T01:17:22.469Z,70.49
2019-02-24T01:19:50.142Z,70.73
2019-02-24T01:22:17.302Z,71.11
2019-02-24T01:24:44.497Z,71.48
2019-02-24T01:27:11.750Z,73.24
2019-02-24T01:29:39.152Z,72.25
2019-02-24T01:32:06.606Z,72.04
2019-02-24T01:34:34.011Z,71.37
2019-02-24T01:37:01.548Z,71.29
2019-02-24T01:39:29.798Z,71.35
2019-02-24T01:41:57.893Z,71.49
2019-02-24T01:44:25.460Z,72.22
2019-02-24T01:46:52.924Z,71.27
2019-02-24T01:49:20.537Z,70.37
2019-02-24T01:51:47.845Z,70.19
2019-02-24T01:54:16.581Z,71.02
2019-02-24T01:56:43.866Z,70.95
2019-02-24T01:59:11.439Z,71.17
2019-02-24T02:01:39.002Z,70.83
2019-02-24T02:04:06.994Z,72.81
2019-02-24T02:06:34.546Z,72.58
2019-02-24T02:09:02.550Z,72.48
2019-02-24T02:11:30.330Z,72.30
2019-02-24T02:13:58.296Z,72.24
2019-02-24T02:16:25.686Z,72.34
2019-02-24T02:18:53.192Z,72.34
2019-02-24T02:21:21.019Z,73.23
2019-02-24T02:23:48.629Z,73.74
2019-02-24T02:26:16.212Z,72.52
2019-02-24T02:28:44.326Z,73.56
2019-02-24T02:31:12.283Z,73.34
2019-02-24T02:33:40.454Z,73.04
2019-02-24T02:36:09.183Z,72.37
2019-02-24T02:38:36.596Z,71.76
2019-02-24T02:41:04.247Z,72.77
2019-02-24T02:43:31.878Z,72.80
2019-02-24T02:45:59.242Z,72.80
2019-02-24T02:48:27.193Z,73.01
2019-02-24T02:50:54.458Z,73.90
2019-02-24T02:53:21.874Z,74.38
2019-02-24T02:55:49.680Z,73.43
2019-02-24T02:58:17.842Z,75.05
2019-02-24T03:00:45.861Z,74.50
2019-02-24T03:03:13.359Z,73.77
2019-02-24T03:05:47.432Z,73.39
2019-02-24T03:08:14.980Z,73.48
2019-02-24T03:10:42.374Z,73.71
2019-02-24T03:13:10.405Z,74.75
2019-02-24T03:15:37.881Z,73.97
2019-02-24T03:18:05.463Z,73.66
2019-02-24T03:20:33.018Z,73.88
2019-02-24T03:23:01.107Z,74.09
2019-02-24T03:25:29.373Z,75.04
2019-02-24T03:27:57.730Z,75.23
2019-02-24T03:30:25.425Z,74.17
2019-02-24T03:32:53.531Z,74.23
2019-02-24T03:35:21.191Z,74.70
2019-02-24T03:37:48.749Z,75.61
2019-02-24T03:40:16.467Z,74.95
2019-02-24T03:42:43.684Z,74.75
2019-02-24T03:45:12.171Z,75.94
2019-02-24T03:47:39.454Z,74.66
2019-02-24T03:50:06.858Z,75.78
2019-02-24T03:52:34.567Z,74.53
2019-02-24T03:55:02.186Z,74.30
2019-02-24T03:57:29.562Z,73.63
2019-02-24T03:59:57.053Z,73.71
2019-02-24T04:02:24.875Z,74.43
2019-02-24T04:04:52.974Z,75.62
2019-02-24T04:07:20.627Z,75.13
2019-02-24T04:09:47.877Z,74.03
2019-02-24T04:12:15.579Z,73.36
2019-02-24T04:14:43.262Z,74.06
2019-02-24T04:17:10.985Z,75.01
2019-02-24T04:19:39.166Z,75.91
2019-02-24T04:22:06.737Z,74.72
2019-02-24T04:24:34.312Z,74.51
2019-02-24T04:27:02.315Z,74.59
2019-02-24T04:29:29.818Z,74.98
2019-02-24T04:31:57.808Z,74.69
2019-02-24T04:34:25.067Z,75.73
2019-02-24T04:36:52.991Z,75.64
2019-02-24T04:39:20.587Z,75.17
2019-02-24T04:41:48.496Z,74.84
2019-02-24T04:44:16.320Z,74.92
2019-02-24T04:46:43.889Z,74.83
2019-02-24T04:49:14.865Z,76.01
2019-02-24T04:51:42.680Z,75.84
2019-02-24T04:54:10.197Z,76.35
2019-02-24T04:56:37.809Z,75.36
2019-02-24T04:59:05.524Z,74.86
2019-02-24T05:01:32.935Z,74.65
2019-02-24T05:04:00.348Z,74.23
2019-02-24T05:06:28.196Z,74.51
2019-02-24T05:08:56.487Z,74.96
2019-02-24T05:11:24.063Z,75.22
2019-02-24T05:13:51.323Z,75.21
2019-02-24T05:16:18.709Z,74.79
2019-02-24T05:18:46.642Z,75.77
2019-02-24T05:21:14.328Z,75.89
2019-02-24T05:23:43.048Z,75.98
2019-02-24T05:26:11.351Z,75.30
2019-02-24T05:28:38.804Z,75.40
2019-02-24T05:31:06.182Z,75.19
2019-02-24T05:33:34.140Z,75.52
2019-02-24T05:36:01.480Z,74.79
2019-02-24T05:38:29.181Z,74.68
2019-02-24T05:40:56.499Z,75.29
2019-02-24T05:43:24.240Z,75.47
2019-02-24T05:45:51.508Z,75.92
2019-02-24T05:48:18.914Z,76.05
2019-02-24T05:50:46.712Z,75.49
2019-02-24T05:53:14.507Z,75.44
2019-02-24T05:55:42.115Z,75.10
2019-02-24T05:58:09.412Z,74.80
2019-02-24T06:04:24.726Z,74.07
2019-02-24T06:06:52.570Z,76.11
2019-02-24T06:09:20.780Z,74.71
2019-02-24T06:11:48.605Z,75.31
2019-02-24T06:14:15.905Z,76.13
2019-02-24T06:16:43.110Z,76.11
2019-02-24T06:19:10.634Z,75.88
2019-02-24T06:21:37.867Z,75.82
2019-02-24T06:24:05.572Z,74.48
2019-02-24T06:26:32.842Z,74.66
2019-02-24T06:29:00.451Z,74.46
2019-02-24T06:31:27.744Z,74.54
2019-02-24T06:33:54.906Z,74.75
2019-02-24T06:36:22.177Z,75.33
2019-02-24T06:38:49.858Z,75.70
2019-02-24T06:41:17.722Z,74.08
2019-02-24T06:43:46.045Z,75.34
2019-02-24T06:46:14.753Z,74.98
2019-02-24T06:48:42.288Z,75.95
2019-02-24T06:51:10.768Z,77.42
2019-02-24T06:53:38.603Z,77.76
2019-02-24T06:56:05.751Z,76.87
2019-02-24T06:58:33.386Z,74.21
2019-02-24T07:01:01.283Z,75.68
2019-02-24T07:03:28.795Z,73.33
2019-02-24T07:05:56.309Z,76.79
2019-02-24T07:08:23.724Z,73.87
2019-02-24T07:10:51.953Z,74.30
2019-02-24T07:13:19.434Z,76.57
2019-02-24T07:15:47.392Z,77.28
2019-02-24T07:18:14.859Z,77.00
2019-02-24T07:20:43.059Z,77.30
2019-02-24T07:23:10.315Z,76.56
2019-02-24T07:25:37.549Z,73.10
2019-02-24T07:28:05.569Z,74.52
2019-02-24T07:30:33.338Z,72.35
2019-02-24T07:33:00.652Z,71.82
2019-02-24T07:35:27.951Z,71.85
2019-02-24T07:37:55.483Z,70.84
2019-02-24T07:40:22.602Z,68.76
2019-02-24T07:42:49.984Z,66.32
2019-02-24T07:45:17.493Z,66.63
2019-02-24T07:47:44.771Z,65.60
2019-02-24T07:50:12.333Z,63.07
2019-02-24T07:52:39.910Z,61.58
2019-02-24T07:55:07.131Z,60.29
2019-02-24T07:57:34.870Z,59.78
2019-02-24T08:00:02.579Z,57.49
2019-02-24T08:02:29.973Z,57.94
2019-02-24T08:04:57.611Z,56.76
2019-02-24T08:07:24.894Z,55.96
2019-02-24T08:09:52.146Z,57.66
2019-02-24T08:12:19.997Z,54.13
2019-02-24T08:14:47.883Z,51.40
2019-02-24T08:17:15.735Z,53.07
2019-02-24T08:19:43.108Z,53.05
2019-02-24T08:22:10.627Z,53.08
2019-02-24T08:24:38.020Z,50.76
2019-02-24T08:27:05.903Z,48.80
2019-02-24T08:29:33.563Z,53.01
2019-02-24T08:32:01.244Z,53.15
2019-02-24T08:34:33.119Z,51.09
2019-02-24T08:37:01.140Z,52.03
2019-02-24T08:39:28.335Z,53.74
2019-02-24T08:41:55.431Z,51.77
2019-02-24T08:44:22.602Z,49.43
2019-02-24T08:46:50.193Z,47.44
2019-02-24T08:49:18.095Z,49.23
2019-02-24T08:51:46.209Z,49.30
2019-02-24T08:54:13.681Z,44.09
2019-02-24T08:56:41.285Z,46.06
2019-02-24T08:59:08.532Z,45.87
2019-02-24T09:01:36.346Z,42.82
2019-02-24T09:04:03.836Z,44.14
2019-02-24T09:06:31.327Z,39.13
2019-02-24T09:08:59.030Z,43.17
2019-02-24T09:11:26.556Z,44.02
2019-02-24T09:13:54.554Z,43.54
2019-02-24T09:16:22.078Z,43.36
2019-02-24T09:18:49.667Z,41.60
2019-02-24T09:21:16.917Z,39.96
2019-02-24T09:23:44.561Z,42.07
2019-02-24T09:26:11.961Z,41.65
2019-02-24T09:28:40.710Z,41.36
2019-02-24T09:31:08.703Z,40.79
2019-02-24T09:33:36.227Z,33.67
2019-02-24T09:36:04.080Z,37.49
2019-02-24T09:38:31.847Z,36.82
2019-02-24T09:41:01.254Z,37.79
2019-02-24T09:43:28.851Z,29.92
2019-02-24T09:45:56.146Z,36.01
2019-02-24T09:48:23.730Z,37.16
2019-02-24T09:50:51.288Z,36.52
2019-02-24T09:53:19.545Z,34.95
2019-02-24T09:55:47.645Z,36.72
2019-02-24T09:58:15.861Z,33.50
2019-02-24T10:00:44.038Z,35.26
2019-02-24T10:03:11.622Z,37.63
2019-02-24T10:05:39.545Z,34.95
2019-02-24T10:08:08.180Z,31.71
2019-02-24T10:10:36.116Z,32.76
2019-02-24T10:13:04.214Z,36.30
2019-02-24T10:15:31.863Z,34.39
2019-02-24T10:17:59.554Z,29.09
2019-02-24T10:20:27.216Z,31.57
2019-02-24T10:22:54.582Z,33.60
2019-02-24T10:25:21.988Z,33.83
2019-02-24T10:27:49.500Z,33.05
2019-02-24T10:30:17.182Z,32.30
2019-02-24T10:32:49.347Z,31.02
2019-02-24T10:35:16.986Z,31.50
2019-02-24T10:37:44.313Z,28.90
2019-02-24T10:40:13.307Z,30.66
2019-02-24T10:42:41.026Z,30.95
2019-02-24T10:45:10.472Z,30.10
2019-02-24T10:47:38.329Z,28.97
2019-02-24T10:50:08.577Z,28.04
2019-02-24T10:52:36.345Z,25.40
2019-02-24T10:55:04.488Z,28.91
2019-02-24T10:57:31.774Z,27.36
2019-02-24T10:59:59.892Z,28.19
2019-02-24T11:02:27.843Z,23.56
2019-02-24T11:04:55.296Z,26.12
2019-02-24T11:07:22.705Z,26.74
2019-02-24T11:09:50.368Z,23.83
2019-02-24T11:12:18.202Z,24.50
2019-02-24T11:14:45.503Z,22.64
2019-02-24T11:17:13.499Z,20.89
2019-02-24T11:19:41.327Z,24.70
2019-02-24T11:22:08.718Z,23.97
2019-02-24T11:24:36.363Z,26.41
2019-02-24T11:27:04.117Z,26.31
2019-02-24T11:29:32.328Z,26.77
2019-02-24T11:32:00.047Z,24.56
2019-02-24T11:34:27.646Z,25.19
2019-02-24T11:36:55.605Z,21.65
2019-02-24T11:39:22.740Z,25.18
2019-02-24T11:41:50.644Z,26.78
2019-02-24T11:44:18.661Z,23.97
2019-02-24T11:46:46.501Z,21.33
2019-02-24T11:49:14.030Z,24.02
2019-02-24T11:51:41.606Z,23.80
2019-02-24T11:54:09.246Z,24.96
2019-02-24T11:56:36.950Z,26.47
2019-02-24T11:59:04.102Z,27.16
2019-02-24T12:01:32.497Z,24.58
2019-02-24T12:04:00.171Z,23.96
2019-02-24T12:06:28.107Z,25.58
2019-02-24T12:08:55.321Z,24.33
2019-02-24T12:11:22.443Z,22.81
2019-02-24T12:13:49.756Z,21.42
2019-02-24T12:16:17.679Z,19.93
2019-02-24T12:18:45.333Z,23.32
2019-02-24T12:21:12.968Z,24.87
2019-02-24T12:23:40.064Z,20.64
2019-02-24T12:26:07.598Z,20.09
2019-02-24T12:28:35.014Z,25.00
2019-02-24T12:31:02.609Z,20.57
2019-02-24T12:33:30.618Z,22.19
2019-02-24T12:35:58.490Z,22.04
2019-02-24T12:38:25.767Z,24.12
2019-02-24T12:40:53.262Z,27.31
2019-02-24T12:43:20.844Z,28.00
2019-02-24T12:45:48.128Z,25.40
2019-02-24T12:48:15.810Z,23.11
2019-02-24T12:50:43.482Z,23.32
2019-02-24T12:53:13.989Z,23.63
2019-02-24T12:55:42.079Z,27.41
2019-02-24T12:58:09.995Z,26.21
2019-02-24T13:00:37.701Z,26.44
2019-02-24T13:03:05.582Z,28.89
2019-02-24T13:05:36.081Z,28.17
2019-02-24T13:08:08.804Z,29.12
2019-02-24T13:10:36.587Z,28.79
2019-02-24T13:13:04.248Z,24.07
2019-02-24T13:15:31.995Z,27.42
2019-02-24T13:17:59.783Z,24.79
2019-02-24T13:20:27.238Z,23.14
2019-02-24T13:22:54.486Z,28.83
2019-02-24T13:25:22.048Z,28.73
2019-02-24T13:27:50.077Z,33.88
2019-02-24T13:30:18.155Z,26.68
2019-02-24T13:32:45.821Z,31.55
2019-02-24T13:35:13.342Z,27.08
2019-02-24T13:37:41.300Z,25.73
2019-02-24T13:40:08.810Z,31.68
2019-02-24T13:42:36.075Z,24.86
2019-02-24T13:45:05.223Z,24.43
2019-02-24T13:47:32.511Z,28.06
2019-02-24T13:50:00.344Z,25.56
2019-02-24T13:52:28.340Z,27.47
2019-02-24T13:54:56.168Z,30.57
2019-02-24T13:57:23.786Z,26.68
2019-02-24T13:59:51.293Z,25.69
2019-02-24T14:02:24.148Z,25.77
2019-02-24T14:04:49.168Z,28.80
2019-02-24T14:07:16.839Z,26.00
2019-02-24T14:09:48.146Z,32.60
2019-02-24T14:12:16.274Z,33.25
2019-02-24T14:14:49.054Z,32.86
2019-02-24T14:17:13.742Z,34.77
2019-02-24T14:19:41.440Z,33.25
2019-02-24T14:22:09.786Z,33.54
2019-02-24T14:24:37.102Z,32.35
2019-02-24T14:27:04.414Z,26.89
2019-02-24T14:29:31.534Z,28.41
2019-02-24T14:31:59.401Z,25.29
2019-02-24T14:34:26.666Z,29.03
2019-02-24T14:36:53.952Z,28.81
2019-02-24T14:39:22.306Z,27.91
2019-02-24T14:41:50.184Z,30.12
2019-02-24T14:44:17.485Z,29.68
2019-02-24T14:46:44.916Z,28.49
2019-02-24T14:49:12.417Z,31.54
2019-02-24T14:51:40.346Z,31.71
2019-02-24T14:54:08.134Z,29.64
2019-02-24T14:56:35.529Z,30.01
2019-02-24T14:59:03.289Z,34.18
2019-02-24T15:01:31.392Z,33.10
2019-02-24T15:03:59.464Z,31.81
2019-02-24T15:06:27.136Z,34.67
2019-02-24T15:08:54.834Z,32.82
2019-02-24T15:11:22.431Z,31.41
2019-02-24T15:13:49.689Z,34.33
2019-02-24T15:16:17.187Z,29.41
2019-02-24T15:18:45.331Z,34.35
2019-02-24T15:21:13.075Z,35.98
2019-02-24T15:23:40.572Z,28.30
2019-02-24T15:26:08.344Z,35.71
2019-02-24T15:28:35.770Z,31.70
2019-02-24T15:31:03.263Z,33.43
2019-02-24T15:33:30.493Z,34.75
2019-02-24T15:35:57.809Z,28.82
2019-02-24T15:38:25.045Z,35.90
2019-02-24T15:40:52.617Z,31.67
2019-02-24T15:43:19.978Z,34.16
2019-02-24T15:45:47.319Z,30.44
2019-02-24T15:48:14.982Z,33.01
2019-02-24T15:50:42.386Z,31.03
2019-02-24T15:53:10.499Z,33.37
2019-02-24T15:55:37.753Z,32.04
2019-02-24T15:58:05.014Z,36.91
2019-02-24T16:00:32.371Z,37.44
2019-02-24T16:03:01.799Z,35.42
2019-02-24T16:05:29.044Z,33.95
2019-02-24T16:07:56.679Z,35.61
2019-02-24T16:10:24.170Z,36.60
2019-02-24T16:12:52.088Z,36.47
2019-02-24T16:15:19.445Z,36.66
2019-02-24T16:17:47.717Z,33.33
2019-02-24T16:20:18.740Z,31.72
2019-02-24T16:22:46.473Z,35.64
2019-02-24T16:25:14.575Z,32.84
2019-02-24T16:27:42.618Z,37.41
2019-02-24T16:30:11.268Z,39.12
2019-02-24T16:32:38.929Z,37.84
2019-02-24T16:35:08.444Z,38.94
2019-02-24T16:37:36.266Z,40.00
2019-02-24T16:40:05.893Z,36.83
2019-02-24T16:42:40.189Z,37.86
2019-02-24T16:45:09.319Z,37.49
2019-02-24T16:47:36.710Z,40.28
2019-02-24T16:50:05.339Z,41.64
2019-02-24T16:52:33.155Z,40.14
2019-02-24T16:55:02.479Z,37.82
2019-02-24T16:57:30.521Z,41.22
2019-02-24T16:59:58.001Z,41.32
2019-02-24T17:02:25.518Z,42.14
2019-02-24T17:04:53.240Z,42.33
2019-02-24T17:07:20.387Z,42.34
2019-02-24T17:09:47.665Z,43.06
2019-02-24T17:12:15.466Z,42.83
2019-02-24T17:14:43.102Z,43.80
2019-02-24T17:17:10.261Z,43.66
2019-02-24T17:19:37.540Z,41.88
2019-02-24T17:22:05.330Z,43.71
2019-02-24T17:24:32.776Z,41.73
2019-02-24T17:27:00.903Z,42.99
2019-02-24T17:29:28.043Z,39.57
2019-02-24T17:31:55.733Z,42.34
2019-02-24T17:34:23.495Z,42.97
2019-02-24T17:36:51.370Z,43.36
2019-02-24T17:39:19.048Z,44.10
2019-02-24T17:41:46.601Z,45.84
2019-02-24T17:44:13.922Z,46.62
2019-02-24T17:46:41.918Z,48.71
2019-02-24T17:49:09.680Z,48.15
2019-02-24T17:51:37.938Z,50.20
2019-02-24T17:54:05.199Z,49.26
2019-02-24T17:56:32.588Z,49.79
2019-02-24T17:59:00.113Z,49.35
2019-02-24T18:01:27.405Z,50.52
2019-02-24T18:03:55.529Z,50.28
2019-02-24T18:06:22.997Z,47.98
2019-02-24T18:08:54.323Z,47.17
2019-02-24T18:11:22.548Z,47.50
2019-02-24T18:13:50.441Z,46.82
2019-02-24T18:16:17.943Z,48.97
2019-02-24T18:18:45.635Z,50.43
2019-02-24T18:21:13.175Z,49.27
2019-02-24T18:23:41.515Z,48.70
2019-02-24T18:26:09.333Z,49.38
2019-02-24T18:28:37.481Z,49.73
2019-02-24T18:31:05.357Z,49.74
2019-02-24T18:33:33.024Z,49.80
2019-02-24T18:36:00.921Z,50.48
2019-02-24T18:38:28.441Z,50.66
2019-02-24T18:40:55.956Z,50.34
2019-02-24T18:43:23.135Z,51.25
2019-02-24T18:45:50.958Z,50.89
2019-02-24T18:48:18.576Z,49.53
2019-02-24T18:50:46.621Z,49.84
2019-02-24T18:53:13.849Z,49.38
2019-02-24T18:55:41.649Z,49.01
2019-02-24T18:58:09.704Z,49.94
2019-02-24T19:00:37.298Z,50.55
2019-02-24T19:03:04.985Z,50.25
2019-02-24T19:05:32.771Z,50.45
2019-02-24T19:08:00.038Z,49.91
2019-02-24T19:10:27.834Z,49.81
2019-02-24T19:12:54.990Z,48.86
2019-02-24T19:15:22.941Z,50.20
2019-02-24T19:17:50.606Z,50.28
2019-02-24T19:20:18.370Z,49.45
2019-02-24T19:22:45.954Z,49.69
2019-02-24T19:25:13.712Z,48.98
2019-02-24T19:27:41.157Z,48.99
2019-02-24T19:30:11.127Z,50.01
2019-02-24T19:32:38.974Z,50.61
2019-02-24T19:35:11.300Z,50.84
2019-02-24T19:37:39.733Z,50.94
2019-02-24T19:40:10.533Z,51.13
2019-02-24T19:42:38.038Z,50.71
2019-02-24T19:45:06.539Z,50.92
2019-02-24T19:47:33.753Z,51.72
2019-02-24T19:50:00.854Z,51.75
2019-02-24T19:52:30.273Z,51.98
2019-02-24T19:54:57.881Z,51.88
2019-02-24T19:57:25.249Z,52.13
2019-02-24T19:59:52.500Z,52.52
2019-02-24T20:02:20.096Z,52.51
2019-02-24T20:04:47.696Z,52.74
2019-02-24T20:07:15.292Z,52.52
2019-02-24T20:09:42.894Z,52.93
2019-02-24T20:12:13.085Z,53.13
2019-02-24T20:14:40.475Z,52.84
2019-02-24T20:17:11.465Z,53.59
2019-02-24T20:19:39.122Z,53.46
2019-02-24T20:22:06.697Z,53.82
2019-02-24T20:24:34.821Z,53.52
2019-02-24T20:27:02.361Z,53.50
2019-02-24T20:29:38.515Z,53.72
2019-02-24T20:32:06.426Z,54.39
2019-02-24T20:34:34.719Z,54.50
2019-02-24T20:37:02.195Z,54.74
2019-02-24T20:39:30.161Z,54.71
2019-02-24T20:41:57.893Z,55.05
2019-02-24T20:44:26.634Z,54.82
2019-02-24T20:46:54.550Z,54.79
2019-02-24T20:49:23.099Z,54.97
2019-02-24T20:51:50.931Z,55.00
2019-02-24T20:54:18.343Z,55.40
2019-02-24T20:56:45.844Z,56.26
2019-02-24T20:59:13.559Z,56.81
2019-02-24T21:01:40.702Z,56.62
2019-02-24T21:04:08.082Z,56.60
2019-02-24T21:06:36.148Z,55.89
2019-02-24T21:09:07.094Z,56.21
2019-02-24T21:11:34.741Z,56.71
2019-02-24T21:14:02.107Z,56.90
2019-02-24T21:16:29.508Z,57.93
2019-02-24T21:18:56.638Z,57.67
2019-02-24T21:21:23.925Z,56.91
2019-02-24T21:23:51.488Z,56.62
2019-02-24T21:26:18.953Z,57.13
2019-02-24T21:28:46.549Z,57.89
2019-02-24T21:31:14.902Z,57.96
2019-02-24T21:33:42.629Z,57.66
2019-02-24T21:36:10.595Z,57.97
2019-02-24T21:38:37.853Z,57.52
2019-02-24T21:41:05.574Z,57.15
2019-02-24T21:43:33.446Z,57.25
2019-02-24T21:46:01.189Z,57.97
2019-02-24T21:48:28.586Z,58.52
2019-02-24T21:50:56.169Z,57.57
2019-02-24T21:53:23.763Z,58.03
2019-02-24T21:55:51.022Z,58.74
2019-02-24T21:58:18.274Z,59.49
2019-02-24T22:00:45.746Z,58.75
2019-02-24T22:03:13.515Z,58.85
2019-02-24T22:05:41.248Z,58.35
2019-02-24T22:08:08.750Z,59.28
2019-02-24T22:10:40.193Z,59.10
2019-02-24T22:13:07.710Z,59.59
2019-02-24T22:15:35.683Z,60.38
2019-02-24T22:18:03.312Z,58.96
2019-02-24T22:20:31.122Z,59.09
2019-02-24T22:22:59.028Z,59.42
2019-02-24T22:25:26.279Z,59.52
2019-02-24T22:27:53.978Z,60.50
2019-02-24T22:30:22.047Z,60.86
2019-02-24T22:32:50.765Z,61.16
2019-02-24T22:35:18.267Z,60.98
2019-02-24T22:37:46.337Z,61.03
2019-02-24T22:40:14.914Z,63.29
2019-02-24T22:42:44.064Z,65.51
2019-02-24T22:45:13.738Z,63.35
2019-02-24T22:47:42.497Z,62.20
2019-02-24T22:50:10.354Z,61.48
2019-02-24T22:52:38.164Z,61.50
2019-02-24T22:55:06.145Z,61.76
2019-02-24T22:57:33.472Z,62.42
2019-02-24T23:00:01.245Z,62.59
2019-02-24T23:02:29.514Z,62.75
2019-02-24T23:04:57.797Z,61.53
2019-02-24T23:07:25.285Z,61.83
2019-02-24T23:09:52.628Z,62.36
2019-02-24T23:12:20.647Z,63.42
2019-02-24T23:14:51.674Z,65.47
2019-02-24T23:17:19.634Z,63.21
2019-02-24T23:19:47.411Z,62.62
2019-02-24T23:22:15.027Z,63.11
2019-02-24T23:24:42.565Z,63.47
2019-02-24T23:27:10.335Z,65.09
2019-02-24T23:29:37.715Z,63.12
2019-02-24T23:32:05.654Z,63.39
2019-02-24T23:34:33.129Z,66.63
2019-02-24T23:37:00.730Z,66.47
2019-02-24T23:39:28.092Z,66.13
2019-02-24T23:41:55.796Z,66.70
2019-02-24T23:44:23.544Z,67.22
2019-02-24T23:46:51.466Z,67.60
2019-02-24T23:49:19.098Z,68.05
2019-02-24T23:51:46.970Z,67.88
2019-02-24T23:54:14.530Z,67.00
2019-02-24T23:56:42.180Z,67.90
2019-02-24T23:59:09.771Z,67.84
